createdAt,value
2018-06-03T00:03:45.186Z,21.83
2018-06-03T00:08:46.693Z,21.86
2018-06-03T00:13:48.070Z,21.86
2018-06-03T00:18:49.436Z,21.85
2018-06-03T00:23:50.783Z,21.81
2018-06-03T00:28:52.149Z,21.69
2018-06-03T00:33:53.465Z,21.52
2018-06-03T00:38:54.805Z,21.34
2018-06-03T00:43:56.213Z,21.19
2018-06-03T00:48:57.566Z,21.06
2018-06-03T00:53:59.634Z,20.99
2018-06-03T00:59:01.006Z,20.96
2018-06-03T01:04:02.361Z,21.02
2018-06-03T01:09:04.475Z,21.11
2018-06-03T01:14:06.548Z,21.21
2018-06-03T01:19:07.896Z,21.26
2018-06-03T01:24:09.238Z,21.27
2018-06-03T01:29:10.546Z,21.17
2018-06-03T01:34:12.611Z,21.16
2018-06-03T01:39:13.980Z,21.04
2018-06-03T01:44:15.320Z,20.92
2018-06-03T01:49:16.649Z,20.81
2018-06-03T01:54:17.988Z,20.73
2018-06-03T01:59:19.317Z,20.66
2018-06-03T02:04:20.625Z,20.61
2018-06-03T02:09:21.966Z,20.56
2018-06-03T02:14:23.282Z,20.56
2018-06-03T02:19:24.614Z,20.58
2018-06-03T02:24:25.941Z,20.54
2018-06-03T02:29:28.000Z,20.45
2018-06-03T02:34:29.334Z,20.43
2018-06-03T02:39:31.419Z,20.44
2018-06-03T02:44:32.742Z,20.34
2018-06-03T02:49:34.838Z,20.28
2018-06-03T02:54:36.951Z,20.24
2018-06-03T02:59:39.043Z,20.23
2018-06-03T03:04:40.354Z,20.10
2018-06-03T03:09:42.434Z,20.04
2018-06-03T03:14:43.823Z,20.07
2018-06-03T03:19:45.169Z,20.15
2018-06-03T03:24:46.515Z,20.27
2018-06-03T03:29:47.830Z,20.36
2018-06-03T03:34:49.186Z,20.43
2018-06-03T03:39:50.501Z,20.60
2018-06-03T03:44:52.759Z,20.71
2018-06-03T03:49:54.098Z,20.87
2018-06-03T03:54:56.170Z,21.08
2018-06-03T03:59:57.538Z,21.40
2018-06-03T04:04:58.869Z,21.52
2018-06-03T04:10:00.205Z,21.51
2018-06-03T04:15:01.529Z,21.46
2018-06-03T04:20:02.887Z,21.47
2018-06-03T04:25:04.237Z,21.48
2018-06-03T04:30:06.297Z,21.54
2018-06-03T04:35:07.634Z,21.53
2018-06-03T04:40:09.690Z,21.55
2018-06-03T04:45:11.010Z,21.61
2018-06-03T04:50:12.330Z,21.69
2018-06-03T04:55:13.644Z,21.78
2018-06-03T05:00:15.053Z,21.83
2018-06-03T05:05:16.436Z,22.20
2018-06-03T05:10:17.914Z,22.58
2018-06-03T05:15:19.369Z,23.09
2018-06-03T05:20:21.442Z,23.51
2018-06-03T05:25:22.769Z,23.66
2018-06-03T05:30:24.817Z,23.58
2018-06-03T05:35:26.138Z,23.61
2018-06-03T05:40:27.445Z,23.66
2018-06-03T05:45:28.785Z,23.80
2018-06-03T05:50:30.102Z,23.84
2018-06-03T05:55:31.404Z,23.78
2018-06-03T06:00:32.728Z,23.84
2018-06-03T06:05:34.054Z,24.16
2018-06-03T06:10:35.414Z,24.37
2018-06-03T06:15:36.760Z,24.50
2018-06-03T06:20:38.100Z,24.72
2018-06-03T06:25:39.413Z,24.92
2018-06-03T06:30:40.737Z,25.08
2018-06-03T06:35:42.812Z,25.16
2018-06-03T06:40:44.149Z,25.41
2018-06-03T06:45:46.223Z,25.72
2018-06-03T06:50:47.539Z,26.20
2018-06-03T06:55:49.627Z,26.46
2018-06-03T07:00:51.121Z,26.60
2018-06-03T07:05:52.461Z,26.52
2018-06-03T07:10:53.881Z,26.22
2018-06-03T07:15:55.205Z,26.18
2018-06-03T07:20:56.513Z,26.40
2018-06-03T07:25:58.596Z,26.90
2018-06-03T07:30:59.917Z,27.36
2018-06-03T07:36:01.226Z,27.57
2018-06-03T07:41:02.581Z,27.17
2018-06-03T07:46:04.659Z,26.65
2018-06-03T07:51:06.004Z,26.80
2018-06-03T07:56:07.318Z,27.20
2018-06-03T08:01:08.638Z,27.31
2018-06-03T08:06:10.726Z,27.71
2018-06-03T08:11:12.070Z,27.89
2018-06-03T08:16:13.462Z,28.34
2018-06-03T08:21:14.815Z,28.37
2018-06-03T08:26:16.150Z,28.46
2018-06-03T08:31:17.463Z,29.06
2018-06-03T08:36:18.796Z,29.07
2018-06-03T08:41:20.155Z,29.17
2018-06-03T08:46:21.497Z,29.34
2018-06-03T08:51:22.821Z,30.20
2018-06-03T08:56:24.168Z,29.75
2018-06-03T09:01:25.508Z,28.72
2018-06-03T09:06:26.853Z,27.91
2018-06-03T09:11:28.211Z,27.49
2018-06-03T09:16:30.278Z,27.57
2018-06-03T09:21:31.627Z,27.43
2018-06-03T09:26:33.672Z,27.23
2018-06-03T09:31:34.991Z,27.33
2018-06-03T09:36:36.331Z,27.38
2018-06-03T09:41:37.662Z,27.88
2018-06-03T09:46:38.977Z,28.46
2018-06-03T09:51:41.045Z,28.58
2018-06-03T09:56:42.395Z,28.56
2018-06-03T10:01:43.715Z,28.74
2018-06-03T10:06:45.044Z,28.94
2018-06-03T10:11:46.366Z,29.15
2018-06-03T10:16:47.682Z,29.33
2018-06-03T10:21:48.997Z,29.78
2018-06-03T10:26:50.345Z,29.89
2018-06-03T10:31:51.670Z,29.92
2018-06-03T10:36:52.994Z,29.62
2018-06-03T10:41:55.472Z,29.16
2018-06-03T10:46:56.854Z,29.18
2018-06-03T10:51:58.185Z,29.24
2018-06-03T10:56:59.515Z,29.63
2018-06-03T11:02:00.965Z,29.81
2018-06-03T11:07:02.381Z,29.92
2018-06-03T11:12:04.843Z,29.83
2018-06-03T11:17:06.185Z,30.15
2018-06-03T11:22:07.601Z,30.20
2018-06-03T11:27:08.935Z,29.94
2018-06-03T11:32:10.257Z,29.98
2018-06-03T11:37:12.320Z,30.44
2018-06-03T11:42:13.637Z,30.89
2018-06-03T11:47:14.950Z,31.11
2018-06-03T11:52:17.017Z,31.46
2018-06-03T11:57:18.367Z,30.97
2018-06-03T12:02:19.689Z,30.69
2018-06-03T12:07:21.001Z,30.67
2018-06-03T12:12:22.330Z,30.62
2018-06-03T12:17:23.659Z,30.43
2018-06-03T12:22:24.971Z,30.46
2018-06-03T12:27:26.290Z,30.50
2018-06-03T12:32:28.351Z,30.46
2018-06-03T12:37:29.722Z,30.77
2018-06-03T12:42:31.051Z,31.15
2018-06-03T12:47:32.361Z,31.13
2018-06-03T12:52:34.424Z,31.14
2018-06-03T12:57:35.807Z,31.42
2018-06-03T13:02:37.170Z,30.86
2018-06-03T13:07:38.498Z,30.68
2018-06-03T13:12:39.861Z,31.02
2018-06-03T13:17:41.182Z,31.46
2018-06-03T13:22:42.527Z,30.76
2018-06-03T13:27:43.892Z,30.53
2018-06-03T13:32:45.242Z,30.52
2018-06-03T13:37:46.591Z,30.07
2018-06-03T13:42:47.938Z,29.72
2018-06-03T13:47:49.281Z,29.78
2018-06-03T13:52:50.608Z,29.79
2018-06-03T13:57:51.966Z,29.73
2018-06-03T14:02:53.302Z,29.43
2018-06-03T14:07:54.653Z,29.50
2018-06-03T14:12:56.007Z,29.27
2018-06-03T14:17:57.363Z,29.16
2018-06-03T14:22:58.691Z,29.38
2018-06-03T14:28:00.023Z,29.56
2018-06-03T14:33:01.366Z,29.33
2018-06-03T14:38:32.098Z,29.38
2018-06-03T14:43:35.060Z,29.23
2018-06-03T14:48:38.074Z,29.15
2018-06-03T14:53:41.068Z,28.85
2018-06-03T14:58:44.071Z,28.91
2018-06-03T15:03:47.145Z,28.68
2018-06-03T15:08:50.185Z,28.49
2018-06-03T15:13:53.215Z,28.57
2018-06-03T15:18:56.225Z,28.80
2018-06-03T15:23:59.226Z,28.62
2018-06-03T15:29:02.276Z,28.56
2018-06-03T15:34:05.291Z,28.10
2018-06-03T15:39:08.495Z,28.44
2018-06-03T15:44:11.535Z,28.50
2018-06-03T15:49:14.643Z,28.20
2018-06-03T15:54:17.713Z,28.70
2018-06-03T15:59:20.739Z,28.73
2018-06-03T16:04:23.730Z,28.60
2018-06-03T16:09:26.719Z,28.64
2018-06-03T16:14:29.717Z,29.25
2018-06-03T16:19:32.763Z,28.79
2018-06-03T16:24:35.758Z,28.71
2018-06-03T16:29:38.882Z,28.54
2018-06-03T16:34:41.911Z,28.22
2018-06-03T16:39:44.931Z,27.99
2018-06-03T16:44:47.954Z,27.98
2018-06-03T16:49:50.969Z,27.95
2018-06-03T16:54:53.971Z,27.82
2018-06-03T16:59:56.994Z,28.09
2018-06-03T17:05:00.026Z,27.93
2018-06-03T17:10:03.162Z,27.77
2018-06-03T17:15:06.195Z,27.67
2018-06-03T17:20:09.206Z,28.11
2018-06-03T17:25:12.211Z,27.98
2018-06-03T17:30:15.348Z,28.30
2018-06-03T17:35:18.460Z,27.86
2018-06-03T17:40:21.537Z,27.67
2018-06-03T17:45:24.579Z,27.74
2018-06-03T17:50:27.818Z,27.51
2018-06-03T17:55:30.846Z,27.48
2018-06-03T18:00:33.950Z,27.26
2018-06-03T18:05:36.983Z,27.05
2018-06-03T18:10:40.006Z,26.93
2018-06-03T18:15:43.084Z,26.88
2018-06-03T18:20:46.185Z,26.84
2018-06-03T18:25:49.317Z,26.79
2018-06-03T18:30:52.387Z,26.61
2018-06-03T18:35:55.440Z,26.53
2018-06-03T18:40:58.472Z,26.40
2018-06-03T18:46:01.576Z,26.30
2018-06-03T18:51:05.018Z,26.21
2018-06-03T18:56:08.359Z,26.26
2018-06-03T19:01:11.809Z,26.19
2018-06-03T19:06:15.854Z,26.06
2018-06-03T19:11:18.958Z,25.96
2018-06-03T19:16:21.987Z,25.84
2018-06-03T19:21:25.067Z,25.66
2018-06-03T19:26:28.152Z,25.45
2018-06-03T19:31:31.202Z,25.25
2018-06-03T19:36:34.254Z,25.04
2018-06-03T19:41:37.523Z,24.83
2018-06-03T19:46:40.523Z,24.66
2018-06-03T19:51:43.592Z,24.63
2018-06-03T19:56:46.984Z,24.56
2018-06-03T20:01:50.313Z,24.17
2018-06-03T20:06:53.326Z,23.96
2018-06-03T20:11:56.396Z,23.89
2018-06-03T20:16:59.502Z,23.96
2018-06-03T20:22:02.545Z,23.98
2018-06-03T20:27:05.597Z,23.88
2018-06-03T20:32:08.939Z,23.66
2018-06-03T20:37:12.123Z,23.39
2018-06-03T20:42:15.126Z,23.41
2018-06-03T20:47:18.226Z,23.34
2018-06-03T20:52:21.250Z,23.29
2018-06-03T20:57:24.308Z,23.27
2018-06-03T21:02:27.308Z,23.15
2018-06-03T21:07:30.325Z,23.05
2018-06-03T21:12:33.353Z,23.00
2018-06-03T21:17:36.673Z,22.93
2018-06-03T21:22:40.014Z,22.83
2018-06-03T21:27:42.988Z,22.75
2018-06-03T21:32:45.992Z,22.72
2018-06-03T21:37:49.004Z,22.49
2018-06-03T21:42:52.023Z,22.35
2018-06-03T21:47:55.022Z,22.24
2018-06-03T21:52:58.026Z,22.21
2018-06-03T21:58:01.097Z,22.14
2018-06-03T22:03:04.202Z,22.09
2018-06-03T22:08:07.239Z,22.03
2018-06-03T22:13:10.291Z,22.05
2018-06-03T22:18:13.336Z,22.00
2018-06-03T22:23:16.328Z,21.96
2018-06-03T22:28:19.306Z,21.91
2018-06-03T22:33:22.304Z,21.88
2018-06-03T22:38:25.290Z,21.81
2018-06-03T22:43:28.273Z,21.74
2018-06-03T22:48:31.266Z,21.64
2018-06-03T22:53:34.250Z,21.55
2018-06-03T22:58:37.241Z,21.51
2018-06-03T23:03:40.298Z,21.39
2018-06-03T23:08:43.338Z,21.32
2018-06-03T23:13:46.338Z,21.32
2018-06-03T23:18:49.342Z,21.34
2018-06-03T23:23:52.380Z,21.23
2018-06-03T23:28:55.385Z,21.11
2018-06-03T23:33:58.381Z,21.01
2018-06-03T23:39:01.390Z,20.99
2018-06-03T23:44:04.418Z,20.95
2018-06-03T23:49:07.410Z,20.98
2018-06-03T23:54:11.181Z,21.00
2018-06-03T23:59:14.203Z,20.97
